Time;durP1;ratioP1;P1;durP2;ratioP2;P2;SDS_P1;SDS_P2;PMS_P1;PMS_P2;Temp;Humidity;BMP_temperature;BMP_pressure;BME280_temperature;BME280_humidity;BME280_pressure;Samples;Min_cycle;Max_cycle;Signal;HPM_P1;HPM_P2
2022/10/18 00:02:01;;;;;;;10.40;6.30;;;19.00;99.90;;;;;;5017071;28;20201;-71
2022/10/18 00:04:26;;;;;;;10.55;6.18;;;19.00;99.90;;;;;;5013960;28;20227;-71
2022/10/18 00:06:52;;;;;;;10.38;6.55;;;19.00;99.90;;;;;;5011389;28;20205;-71
2022/10/18 00:09:17;;;;;;;9.50;6.75;;;19.00;99.90;;;;;;5019885;28;20201;-71
2022/10/18 00:11:43;;;;;;;9.65;6.25;;;19.00;99.90;;;;;;5015135;28;20177;-71
2022/10/18 00:14:08;;;;;;;10.05;6.38;;;18.90;99.90;;;;;;5017841;28;20215;-71
2022/10/18 00:16:34;;;;;;;11.23;7.10;;;18.90;99.90;;;;;;5016298;28;20205;-71
2022/10/18 00:19:00;;;;;;;10.68;6.20;;;18.90;99.90;;;;;;5018005;28;20205;-70
2022/10/18 00:21:25;;;;;;;10.13;6.80;;;18.90;99.90;;;;;;5017623;28;20221;-71
2022/10/18 00:23:52;;;;;;;8.73;6.32;;;18.80;99.90;;;;;;5015231;28;20323;-71
2022/10/18 00:26:21;;;;;;;9.95;7.53;;;18.80;99.90;;;;;;5052323;23;20298;-70
2022/10/18 00:28:53;;;;;;;9.90;6.22;;;18.90;99.90;;;;;;5023998;28;20204;-70
2022/10/18 00:31:22;;;;;;;12.63;8.57;;;18.90;99.90;;;;;;5034757;28;20283;-70
2022/10/18 00:33:54;;;;;;;7.97;6.18;;;18.90;99.90;;;;;;5021244;28;20254;-70
2022/10/18 00:36:20;;;;;;;10.80;7.20;;;18.90;99.90;;;;;;5014799;28;20211;-70
2022/10/18 00:38:46;;;;;;;9.70;6.20;;;18.90;99.90;;;;;;5037158;28;20714;-70
2022/10/18 00:41:16;;;;;;;15.70;7.20;;;18.90;99.90;;;;;;5036884;28;20243;-70
2022/10/18 00:43:58;;;;;;;9.00;6.93;;;18.90;99.90;;;;;;5021015;28;20212;-70
2022/10/18 00:46:35;;;;;;;16.40;7.53;;;18.80;99.90;;;;;;5035280;28;20796;-70
2022/10/18 00:49:05;;;;;;;10.00;7.30;;;18.80;99.90;;;;;;5013892;28;20200;-70
2022/10/18 00:51:37;;;;;;;12.77;8.18;;;18.80;99.90;;;;;;5039993;28;20199;-70
2022/10/18 00:54:03;;;;;;;10.60;7.25;;;18.80;99.90;;;;;;5039648;28;20188;-70
2022/10/18 00:56:29;;;;;;;12.18;7.25;;;18.80;99.90;;;;;;5036123;28;20195;-70
2022/10/18 00:58:54;;;;;;;12.20;8.20;;;18.80;99.90;;;;;;5007847;28;20291;-70
2022/10/18 01:01:20;;;;;;;11.10;8.00;;;18.80;99.90;;;;;;5036470;28;20203;-71
2022/10/18 01:03:46;;;;;;;10.02;7.28;;;18.80;99.90;;;;;;5018999;28;20209;-70
2022/10/18 01:06:11;;;;;;;12.45;7.50;;;18.80;99.90;;;;;;5007575;28;20558;-71
2022/10/18 01:08:54;;;;;;;11.82;7.68;;;18.80;99.90;;;;;;5040575;28;20655;-70
2022/10/18 01:11:38;;;;;;;13.52;8.43;;;18.80;99.90;;;;;;5034454;28;20199;-70
2022/10/18 01:14:31;;;;;;;10.05;7.75;;;18.80;99.90;;;;;;5034006;28;20211;-70
2022/10/18 01:17:02;;;;;;;12.40;8.35;;;18.80;99.90;;;;;;5009512;28;20214;-69
2022/10/18 01:19:37;;;;;;;12.82;8.60;;;18.80;99.90;;;;;;5017670;28;20315;-71
2022/10/18 01:22:22;;;;;;;12.48;8.63;;;18.80;99.90;;;;;;5034804;28;20636;-70
2022/10/18 01:58:51;;;;;;;13.27;9.75;;;18.40;99.90;;;;;;5019304;28;20331;-70
2022/10/18 02:01:49;;;;;;;11.60;9.35;;;18.40;99.90;;;;;;5025063;28;20208;-69
2022/10/18 02:04:21;;;;;;;14.30;10.27;;;18.40;99.90;;;;;;5017708;28;20757;-70
2022/10/18 02:06:53;;;;;;;15.38;10.52;;;18.40;99.90;;;;;;5022448;28;20725;-71
2022/10/18 02:09:38;;;;;;;10.88;9.75;;;18.40;99.90;;;;;;5023274;28;20208;-70
2022/10/18 02:12:08;;;;;;;12.25;9.70;;;18.40;99.90;;;;;;5005365;28;20179;-71
2022/10/18 02:14:35;;;;;;;11.60;9.75;;;18.30;99.90;;;;;;5021304;28;20172;-70
2022/10/18 02:17:04;;;;;;;11.40;9.82;;;18.40;99.90;;;;;;5023623;28;20570;-71
2022/10/18 02:19:49;;;;;;;10.73;9.63;;;18.30;99.90;;;;;;5020581;28;20244;-71
2022/10/18 02:22:17;;;;;;;11.07;9.50;;;18.30;99.90;;;;;;5020853;28;20200;-71
2022/10/18 02:24:48;;;;;;;12.88;9.75;;;18.30;99.90;;;;;;5022921;28;20749;-71
2022/10/18 02:27:14;;;;;;;11.15;8.90;;;18.30;99.90;;;;;;5015942;28;20220;-70
2022/10/18 02:29:41;;;;;;;11.55;9.25;;;18.30;99.90;;;;;;5021884;28;20177;-71
2022/10/18 02:32:31;;;;;;;13.20;9.35;;;18.30;99.90;;;;;;5021476;28;20291;-70
2022/10/18 02:34:59;;;;;;;12.38;8.57;;;18.20;99.90;;;;;;5023077;28;20280;-70
2022/10/18 02:37:30;;;;;;;10.50;8.98;;;18.20;99.90;;;;;;5009436;28;20690;-71
2022/10/18 02:39:56;;;;;;;12.40;8.95;;;18.20;99.90;;;;;;5022788;28;20609;-70
2022/10/18 02:42:21;;;;;;;12.40;8.90;;;18.20;99.90;;;;;;5005324;28;20193;-71
2022/10/18 02:44:47;;;;;;;10.32;9.20;;;18.20;99.90;;;;;;5003066;28;20177;-71
2022/10/18 02:47:12;;;;;;;12.02;9.13;;;18.20;99.90;;;;;;5021378;28;20283;-71
2022/10/18 02:49:38;;;;;;;11.85;8.23;;;18.20;99.90;;;;;;5020679;28;20254;-71
2022/10/18 02:52:04;;;;;;;11.00;8.88;;;18.20;99.90;;;;;;5023000;28;20229;-71
2022/10/18 02:54:29;;;;;;;13.63;9.48;;;18.10;99.90;;;;;;5019794;28;20204;-71
2022/10/18 02:56:55;;;;;;;11.10;8.82;;;18.10;99.90;;;;;;5022102;28;20593;-70
2022/10/18 02:59:20;;;;;;;9.25;8.15;;;18.10;99.90;;;;;;5015984;28;20264;-71
2022/10/18 03:01:46;;;;;;;10.18;8.82;;;18.00;99.90;;;;;;5000897;28;20702;-71
2022/10/18 03:04:11;;;;;;;12.63;9.38;;;18.00;99.90;;;;;;5021350;28;20212;-71
2022/10/18 03:06:37;;;;;;;13.82;8.00;;;18.00;99.90;;;;;;5020388;28;20240;-71
2022/10/18 03:09:05;;;;;;;9.57;8.55;;;18.10;99.90;;;;;;5022449;28;20173;-71
2022/10/18 03:11:31;;;;;;;10.45;8.93;;;18.00;99.90;;;;;;5019739;28;20663;-71
2022/10/18 03:13:56;;;;;;;10.98;8.48;;;18.10;99.90;;;;;;5004410;28;20204;-71
2022/10/18 03:16:22;;;;;;;9.77;7.95;;;18.00;99.90;;;;;;5022055;28;20274;-71
2022/10/18 03:18:47;;;;;;;13.65;8.88;;;18.00;99.90;;;;;;5019524;28;20259;-70
2022/10/18 03:21:13;;;;;;;9.80;8.70;;;17.90;99.90;;;;;;5002949;28;20231;-71
2022/10/18 03:23:40;;;;;;;13.15;9.05;;;18.00;99.90;;;;;;5020734;28;20192;-71
2022/10/18 03:26:06;;;;;;;11.20;8.45;;;17.90;99.90;;;;;;5022390;28;20235;-71
2022/10/18 03:28:31;;;;;;;14.35;8.27;;;17.90;99.90;;;;;;5019132;28;20204;-71
2022/10/18 03:31:01;;;;;;;9.45;8.45;;;17.90;99.90;;;;;;5019309;28;20212;-70
2022/10/18 03:33:28;;;;;;;13.80;8.55;;;17.90;99.90;;;;;;5022961;28;20228;-71
2022/10/18 03:35:53;;;;;;;9.07;7.55;;;17.90;99.90;;;;;;5011645;28;20257;-69
2022/10/18 03:38:19;;;;;;;9.00;7.28;;;17.90;99.90;;;;;;5021061;28;20184;-71
2022/10/18 03:40:44;;;;;;;13.35;7.90;;;17.90;99.90;;;;;;5020411;28;20231;-71
2022/10/18 03:43:10;;;;;;;8.43;7.43;;;17.90;99.90;;;;;;5004460;28;20214;-70
2022/10/18 03:45:35;;;;;;;10.30;8.05;;;17.90;99.90;;;;;;5018729;28;20285;-71
2022/10/18 03:48:01;;;;;;;9.70;7.28;;;17.90;99.90;;;;;;5005651;28;20512;-71
2022/10/18 03:50:26;;;;;;;10.82;8.13;;;17.90;99.90;;;;;;5008476;28;20538;-71
2022/10/18 03:52:53;;;;;;;10.35;7.15;;;17.90;99.90;;;;;;5005832;28;20314;-71
2022/10/18 03:55:18;;;;;;;8.43;7.28;;;17.80;99.90;;;;;;5012347;28;20211;-71
2022/10/18 03:57:44;;;;;;;8.30;7.15;;;17.80;99.90;;;;;;5007037;28;20204;-71
2022/10/18 04:00:10;;;;;;;8.43;7.50;;;17.80;99.90;;;;;;5026766;28;20228;-71
2022/10/18 04:02:36;;;;;;;7.97;7.03;;;17.80;99.90;;;;;;5022832;28;20238;-71
2022/10/18 04:05:01;;;;;;;10.20;6.97;;;17.70;99.90;;;;;;5025524;28;20291;-71
2022/10/18 04:07:27;;;;;;;11.43;7.63;;;17.70;99.90;;;;;;5008013;28;20212;-71
2022/10/18 04:09:52;;;;;;;10.48;7.40;;;17.70;99.90;;;;;;5022554;28;20343;-69
2022/10/18 04:12:18;;;;;;;9.38;7.18;;;17.70;99.90;;;;;;5012251;28;20222;-71
2022/10/18 04:14:43;;;;;;;8.85;7.32;;;17.60;99.90;;;;;;5026589;28;20184;-71
2022/10/18 04:17:09;;;;;;;8.75;7.20;;;17.70;99.90;;;;;;5025750;28;20204;-71
2022/10/18 04:19:34;;;;;;;8.13;7.05;;;17.70;99.90;;;;;;5022076;28;20201;-71
2022/10/18 04:22:00;;;;;;;8.25;7.30;;;17.70;99.90;;;;;;5025252;28;20250;-71
2022/10/18 04:24:25;;;;;;;8.18;6.35;;;17.70;99.90;;;;;;5025480;28;20204;-71
2022/10/18 04:26:51;;;;;;;13.88;7.88;;;17.70;99.90;;;;;;5004928;28;20213;-71
2022/10/18 04:29:16;;;;;;;10.05;7.82;;;17.60;99.90;;;;;;5023943;28;20192;-69
2022/10/18 04:31:42;;;;;;;9.35;7.78;;;17.50;99.90;;;;;;5022986;28;20287;-71
2022/10/18 04:34:09;;;;;;;13.68;9.40;;;17.50;99.90;;;;;;5011469;28;20760;-71
2022/10/18 04:36:34;;;;;;;10.93;8.10;;;17.50;99.90;;;;;;5011697;28;20227;-71
2022/10/18 04:39:00;;;;;;;10.40;8.10;;;17.40;99.90;;;;;;5030308;28;20267;-71
2022/10/18 04:41:25;;;;;;;14.25;8.40;;;17.30;99.90;;;;;;5022078;28;20217;-71
2022/10/18 04:43:51;;;;;;;10.23;8.88;;;17.30;99.90;;;;;;5025558;28;20201;-71
2022/10/18 04:46:16;;;;;;;14.05;8.95;;;17.40;99.90;;;;;;5023401;28;20280;-71
2022/10/18 04:48:42;;;;;;;9.48;7.57;;;17.30;99.90;;;;;;5005493;28;20204;-71
2022/10/18 04:51:07;;;;;;;10.48;8.27;;;17.40;99.90;;;;;;5007224;28;20187;-70
2022/10/18 04:53:33;;;;;;;10.88;8.30;;;17.40;99.90;;;;;;5011833;28;20229;-71
2022/10/18 04:55:58;;;;;;;13.18;8.82;;;17.40;99.90;;;;;;5025007;28;20219;-71
2022/10/18 04:58:24;;;;;;;10.30;8.07;;;17.40;99.90;;;;;;5010977;28;20295;-71
2022/10/18 05:00:50;;;;;;;8.25;7.32;;;17.40;99.90;;;;;;5026013;28;20212;-72
2022/10/18 05:03:15;;;;;;;10.32;7.55;;;17.40;99.90;;;;;;5023330;28;20690;-70
2022/10/18 05:05:42;;;;;;;15.73;11.73;;;17.40;99.90;;;;;;5005626;28;20219;-70
2022/10/18 05:08:07;;;;;;;10.20;7.35;;;17.40;99.90;;;;;;5026206;28;20654;-71
2022/10/18 05:10:33;;;;;;;10.93;7.03;;;17.40;99.90;;;;;;5012053;28;20241;-72
2022/10/18 05:12:59;;;;;;;9.05;7.72;;;17.30;99.90;;;;;;5025496;28;20678;-71
2022/10/18 05:15:25;;;;;;;12.30;7.60;;;17.30;99.90;;;;;;5021147;28;20224;-71
2022/10/18 05:17:50;;;;;;;9.95;7.70;;;17.30;99.90;;;;;;5006465;28;20169;-71
2022/10/18 05:20:16;;;;;;;12.23;8.43;;;17.30;99.90;;;;;;5039723;28;20257;-71
2022/10/18 05:22:41;;;;;;;10.93;8.20;;;17.20;99.90;;;;;;5016849;28;20334;-70
2022/10/18 05:25:07;;;;;;;10.70;8.27;;;17.20;99.90;;;;;;5008946;28;20208;-70
2022/10/18 05:27:33;;;;;;;12.00;8.38;;;17.20;99.90;;;;;;5021779;28;20204;-71
2022/10/18 05:29:58;;;;;;;14.13;7.80;;;17.20;99.90;;;;;;5036399;28;20184;-71
2022/10/18 05:32:24;;;;;;;14.73;9.30;;;17.20;99.90;;;;;;5016396;28;20191;-71
2022/10/18 05:34:49;;;;;;;11.68;8.02;;;17.20;99.90;;;;;;5035381;28;20247;-71
2022/10/18 05:37:15;;;;;;;12.55;8.40;;;17.10;99.90;;;;;;5039134;28;20223;-71
2022/10/18 05:39:40;;;;;;;13.18;8.80;;;17.10;99.90;;;;;;5016458;28;20212;-71
2022/10/18 05:42:07;;;;;;;9.00;8.10;;;17.00;99.90;;;;;;5034780;28;20611;-71
2022/10/18 05:44:32;;;;;;;9.80;8.40;;;17.10;99.90;;;;;;5039843;28;20665;-71
2022/10/18 05:46:58;;;;;;;10.10;7.60;;;17.00;99.90;;;;;;5035230;28;20228;-71
2022/10/18 05:49:23;;;;;;;10.48;8.15;;;17.00;99.90;;;;;;5033370;28;20690;-71
2022/10/18 05:51:49;;;;;;;8.40;7.18;;;17.00;99.90;;;;;;5039201;28;20201;-71
2022/10/18 05:54:14;;;;;;;9.90;7.95;;;17.10;99.90;;;;;;5039229;28;20553;-71
2022/10/18 05:56:40;;;;;;;9.73;7.45;;;17.00;99.90;;;;;;5035139;28;20717;-71
2022/10/18 05:59:10;;;;;;;15.38;8.73;;;17.00;99.90;;;;;;5034438;28;20270;-71
2022/10/18 06:01:40;;;;;;;10.45;8.00;;;17.00;99.90;;;;;;5020884;28;20235;-71
2022/10/18 06:04:06;;;;;;;9.27;7.97;;;17.00;99.90;;;;;;5035370;28;20679;-71
2022/10/18 06:06:32;;;;;;;11.00;8.57;;;17.00;99.90;;;;;;5015215;28;20212;-71
2022/10/18 06:08:58;;;;;;;11.70;7.93;;;17.00;99.90;;;;;;5039681;28;20208;-71
2022/10/18 06:11:25;;;;;;;11.85;8.50;;;17.00;99.90;;;;;;5037811;28;20199;-71
2022/10/18 06:13:51;;;;;;;12.27;8.27;;;17.00;99.90;;;;;;5034188;28;20211;-71
2022/10/18 06:16:21;;;;;;;9.90;7.53;;;17.00;99.90;;;;;;5034541;28;20214;-70
2022/10/18 06:18:48;;;;;;;11.07;7.45;;;17.00;99.90;;;;;;5035000;28;20209;-71
2022/10/18 06:21:15;;;;;;;9.63;8.02;;;17.00;99.90;;;;;;5006849;28;20211;-71
2022/10/18 06:23:40;;;;;;;12.60;8.02;;;17.00;99.90;;;;;;5037158;28;20208;-71
2022/10/18 06:26:09;;;;;;;13.68;8.00;;;17.00;99.90;;;;;;5036630;28;20305;-71
2022/10/18 06:28:35;;;;;;;13.27;7.60;;;16.90;99.90;;;;;;5052596;23;20665;-73
2022/10/18 06:31:02;;;;;;;9.68;7.30;;;16.90;99.90;;;;;;5037791;28;20239;-73
2022/10/18 06:33:30;;;;;;;8.80;6.72;;;16.90;99.90;;;;;;5038444;28;20261;-73
2022/10/18 06:35:59;;;;;;;7.93;6.38;;;16.90;99.90;;;;;;5019185;28;20579;-73
2022/10/18 06:38:26;;;;;;;9.52;6.28;;;17.00;99.90;;;;;;5035954;28;20216;-73
2022/10/18 06:40:52;;;;;;;9.98;6.63;;;16.90;99.90;;;;;;5031841;28;20208;-72
2022/10/18 06:43:17;;;;;;;10.13;7.85;;;16.90;99.90;;;;;;5034010;28;20245;-73
2022/10/18 06:45:43;;;;;;;8.05;6.50;;;16.90;99.90;;;;;;5036402;28;20215;-72
2022/10/18 06:48:08;;;;;;;9.00;6.22;;;16.90;99.90;;;;;;5032630;28;20219;-73
2022/10/18 06:50:34;;;;;;;7.25;6.30;;;16.90;99.90;;;;;;5013487;28;20263;-72
2022/10/18 06:53:01;;;;;;;11.45;6.72;;;17.00;99.90;;;;;;5019977;28;20204;-72
2022/10/18 06:55:26;;;;;;;7.20;5.40;;;17.10;99.90;;;;;;5035119;28;20235;-73
2022/10/18 06:57:52;;;;;;;9.48;6.18;;;17.10;99.90;;;;;;5032353;28;20638;-71
2022/10/18 07:00:18;;;;;;;9.13;6.75;;;17.10;99.90;;;;;;5033572;28;20208;-73
2022/10/18 07:02:43;;;;;;;9.30;6.93;;;17.10;99.90;;;;;;5021010;28;20638;-73
2022/10/18 07:05:10;;;;;;;9.57;7.55;;;17.10;99.90;;;;;;5017769;28;20204;-73
2022/10/18 07:07:36;;;;;;;10.82;7.15;;;17.20;99.90;;;;;;5031212;28;20624;-74
2022/10/18 07:10:01;;;;;;;15.13;8.38;;;17.10;99.90;;;;;;5037624;28;20238;-73
2022/10/18 07:12:27;;;;;;;12.48;7.70;;;17.10;99.90;;;;;;5035321;28;20204;-72
2022/10/18 07:14:53;;;;;;;13.80;8.65;;;17.10;99.90;;;;;;5009499;28;20177;-72
2022/10/18 07:17:19;;;;;;;15.85;9.20;;;17.10;99.90;;;;;;5038767;28;20161;-72
2022/10/18 07:19:45;;;;;;;13.43;9.60;;;17.10;99.90;;;;;;5034987;28;20716;-73
2022/10/18 07:22:10;;;;;;;13.05;9.18;;;17.20;99.90;;;;;;5034335;28;20200;-73
2022/10/18 07:24:36;;;;;;;13.30;9.25;;;17.10;99.90;;;;;;5013026;28;20667;-72
2022/10/18 07:27:01;;;;;;;11.77;8.88;;;17.20;99.90;;;;;;5034760;28;20171;-73
2022/10/18 07:29:27;;;;;;;13.98;7.50;;;17.20;99.90;;;;;;5035087;28;20211;-73
2022/10/18 07:31:52;;;;;;;11.18;8.38;;;17.20;99.90;;;;;;5032154;28;20208;-72
2022/10/18 07:34:18;;;;;;;13.23;9.00;;;17.30;99.90;;;;;;5033667;28;20673;-73
2022/10/18 07:36:44;;;;;;;11.25;8.07;;;17.30;99.90;;;;;;5037224;28;20200;-72
2022/10/18 07:39:09;;;;;;;12.60;7.38;;;17.40;99.90;;;;;;5032062;28;20216;-72
2022/10/18 07:41:35;;;;;;;11.02;7.68;;;17.30;99.90;;;;;;5013398;28;20654;-72
2022/10/18 07:44:02;;;;;;;8.02;5.63;;;17.40;99.90;;;;;;5021041;28;20253;-70
2022/10/18 07:46:28;;;;;;;5.22;4.60;;;17.40;99.90;;;;;;5033978;28;20211;-72
2022/10/18 07:48:53;;;;;;;8.05;5.18;;;17.40;99.90;;;;;;5032177;28;20655;-72
2022/10/18 07:51:19;;;;;;;7.45;5.22;;;17.40;99.90;;;;;;5033169;28;20195;-72
2022/10/18 07:53:45;;;;;;;6.70;4.60;;;17.40;99.90;;;;;;5017989;28;20177;-72
2022/10/18 07:56:19;;;;;;;10.55;5.53;;;17.40;99.90;;;;;;5022559;28;20557;-72
2022/10/18 07:58:46;;;;;;;8.02;5.68;;;17.40;99.90;;;;;;5030592;28;20694;-72
2022/10/18 08:01:12;;;;;;;7.78;6.10;;;17.30;99.90;;;;;;5011636;28;20591;-72
2022/10/18 08:03:38;;;;;;;7.78;6.20;;;17.30;99.90;;;;;;5028187;28;20225;-73
2022/10/18 08:06:07;;;;;;;9.80;5.88;;;17.20;99.90;;;;;;5032297;28;20223;-73
2022/10/18 08:08:33;;;;;;;7.90;5.88;;;17.20;99.90;;;;;;5032499;28;20254;-72
2022/10/18 08:11:07;;;;;;;8.40;6.10;;;17.20;99.90;;;;;;5018164;28;20610;-73
2022/10/18 08:13:33;;;;;;;8.75;6.20;;;17.10;99.90;;;;;;5027511;28;20331;-71
2022/10/18 08:16:07;;;;;;;12.02;7.30;;;17.10;99.90;;;;;;5030891;28;20224;-72
2022/10/18 08:18:34;;;;;;;8.15;6.60;;;17.00;99.90;;;;;;5032877;28;20269;-73
2022/10/18 08:21:00;;;;;;;10.02;7.07;;;17.10;99.90;;;;;;5034594;28;20652;-72
2022/10/18 08:23:26;;;;;;;10.48;7.05;;;17.00;99.90;;;;;;5032232;28;20176;-71
2022/10/18 08:25:51;;;;;;;9.57;6.68;;;17.10;99.90;;;;;;5015435;28;20338;-72
2022/10/18 08:28:17;;;;;;;11.32;7.13;;;17.00;99.90;;;;;;5037522;28;20279;-72
2022/10/18 08:30:43;;;;;;;11.30;7.38;;;17.00;99.90;;;;;;5013493;28;20208;-72
2022/10/18 08:33:08;;;;;;;11.95;8.05;;;17.00;99.90;;;;;;5030697;28;20732;-71
2022/10/18 08:35:34;;;;;;;11.57;7.20;;;17.10;99.90;;;;;;5016215;28;20187;-72
2022/10/18 08:38:00;;;;;;;8.02;6.15;;;17.00;99.90;;;;;;5036177;28;20228;-72
2022/10/18 08:40:27;;;;;;;8.65;6.30;;;17.00;99.90;;;;;;5034776;28;20291;-72
2022/10/18 08:42:58;;;;;;;9.98;6.80;;;17.00;99.90;;;;;;5033489;28;20200;-71
2022/10/18 08:45:26;;;;;;;8.85;7.10;;;17.00;99.90;;;;;;5040393;28;20200;-73
2022/10/18 08:47:56;;;;;;;12.50;8.02;;;17.00;99.90;;;;;;5036515;28;20584;-72
2022/10/18 08:50:29;;;;;;;11.50;8.95;;;17.00;99.90;;;;;;5033276;28;20219;-71
2022/10/18 08:53:04;;;;;;;12.80;7.85;;;17.10;99.90;;;;;;5039706;28;20208;-71
2022/10/18 08:55:38;;;;;;;10.13;7.95;;;17.10;99.90;;;;;;5037324;28;20266;-71
2022/10/18 08:58:22;;;;;;;14.18;9.55;;;17.10;99.90;;;;;;5013569;28;20777;-71
2022/10/18 09:00:50;;;;;;;10.90;7.95;;;17.10;99.90;;;;;;5014207;28;20224;-71
2022/10/18 09:03:41;;;;;;;10.27;7.10;;;17.00;99.90;;;;;;5025620;28;20204;-71
2022/10/18 09:06:20;;;;;;;10.50;7.50;;;17.00;99.90;;;;;;5034356;28;20173;-70
2022/10/18 09:09:06;;;;;;;9.45;5.47;;;16.90;99.90;;;;;;5032975;28;20192;-71
2022/10/18 09:11:53;;;;;;;10.55;7.10;;;17.00;99.90;;;;;;5003941;28;20231;-71
2022/10/18 09:14:38;;;;;;;9.95;7.60;;;17.00;99.90;;;;;;5032425;28;20210;-71
2022/10/18 09:17:19;;;;;;;8.85;6.57;;;17.00;99.90;;;;;;5030986;28;20212;-71
2022/10/18 09:19:59;;;;;;;9.27;6.97;;;17.00;99.90;;;;;;5031285;28;20279;-72
2022/10/18 09:22:50;;;;;;;9.30;7.28;;;16.90;99.90;;;;;;5033830;28;20208;-71
2022/10/18 09:25:41;;;;;;;8.93;6.72;;;16.90;99.90;;;;;;5026921;28;20622;-71
2022/10/18 09:28:22;;;;;;;13.45;8.48;;;16.90;99.90;;;;;;5035290;28;20204;-71
2022/10/18 09:30:57;;;;;;;10.13;7.60;;;16.90;99.90;;;;;;5031383;28;20272;-72
2022/10/18 09:33:38;;;;;;;10.43;6.97;;;16.90;99.90;;;;;;5032831;28;20234;-71
2022/10/18 09:36:06;;;;;;;12.07;8.32;;;16.90;99.90;;;;;;5018547;28;20524;-71
2022/10/18 09:38:42;;;;;;;12.73;6.70;;;16.90;99.90;;;;;;5036302;28;20219;-71
2022/10/18 09:41:14;;;;;;;11.32;8.07;;;16.90;99.90;;;;;;5014774;28;20638;-71
2022/10/18 09:44:01;;;;;;;9.32;8.00;;;17.00;99.90;;;;;;5035014;28;20200;-71
2022/10/18 09:46:31;;;;;;;11.82;9.20;;;17.00;99.90;;;;;;5037397;28;20283;-71
2022/10/18 09:49:04;;;;;;;8.25;6.32;;;17.00;99.90;;;;;;5034609;28;20207;-70
2022/10/18 09:51:35;;;;;;;12.95;8.20;;;17.00;99.90;;;;;;5034846;28;20216;-70
2022/10/18 09:54:13;;;;;;;10.30;8.40;;;17.00;99.90;;;;;;5038465;28;20263;-70
2022/10/18 09:57:11;;;;;;;13.20;9.73;;;17.00;99.90;;;;;;5027810;28;20176;-71
2022/10/18 09:59:42;;;;;;;15.05;9.82;;;17.00;99.90;;;;;;5014440;28;20208;-71
2022/10/18 10:02:16;;;;;;;8.63;6.88;;;16.90;99.90;;;;;;5039306;28;20686;-71
2022/10/18 10:04:42;;;;;;;10.70;7.47;;;16.90;99.90;;;;;;5030249;28;20212;-71
2022/10/18 10:07:12;;;;;;;10.48;7.80;;;16.90;99.90;;;;;;5014912;28;20283;-71
2022/10/18 10:09:55;;;;;;;9.90;7.75;;;16.90;99.90;;;;;;5013349;28;20218;-71
2022/10/18 10:12:31;;;;;;;12.15;7.47;;;16.90;99.90;;;;;;5032004;28;20547;-71
2022/10/18 10:15:09;;;;;;;11.52;7.60;;;16.90;99.90;;;;;;5033472;28;20183;-71
2022/10/18 10:17:35;;;;;;;10.55;8.30;;;16.90;99.90;;;;;;5031817;28;20205;-71
2022/10/18 10:20:16;;;;;;;9.77;8.38;;;16.80;99.90;;;;;;5036703;28;20208;-71
2022/10/18 10:22:45;;;;;;;11.38;8.15;;;16.80;99.90;;;;;;5029998;28;20204;-71
2022/10/18 10:25:21;;;;;;;12.00;8.90;;;16.80;99.90;;;;;;5014131;28;20200;-71
2022/10/18 10:27:47;;;;;;;11.55;7.97;;;16.80;99.90;;;;;;5030423;28;20269;-71
2022/10/18 10:30:25;;;;;;;10.70;7.78;;;16.80;99.90;;;;;;5035836;28;20231;-72
2022/10/18 10:32:52;;;;;;;12.05;8.02;;;16.80;99.90;;;;;;5032657;28;20168;-73
2022/10/18 10:35:36;;;;;;;10.63;8.10;;;16.80;99.90;;;;;;5010102;28;20589;-71
2022/10/18 10:38:02;;;;;;;10.27;7.95;;;16.80;99.90;;;;;;5036216;28;20291;-72
2022/10/18 10:40:30;;;;;;;10.18;8.27;;;16.80;99.90;;;;;;5032031;28;20208;-71
2022/10/18 10:43:13;;;;;;;10.48;8.65;;;16.80;99.90;;;;;;5013648;28;20556;-71
2022/10/18 10:46:04;;;;;;;10.30;8.23;;;16.80;99.90;;;;;;5035831;28;20575;-71
2022/10/18 10:48:33;;;;;;;11.50;8.75;;;16.90;99.90;;;;;;5023556;28;20219;-72
2022/10/18 10:51:06;;;;;;;10.77;8.32;;;16.90;99.90;;;;;;5035358;28;20176;-71
2022/10/18 10:53:49;;;;;;;10.15;7.55;;;16.90;99.90;;;;;;5037987;28;20199;-71
2022/10/18 10:56:28;;;;;;;8.93;7.40;;;17.00;99.90;;;;;;5034693;28;20204;-71
2022/10/18 10:58:56;;;;;;;11.18;7.80;;;17.10;99.90;;;;;;5010601;28;20343;-71
2022/10/18 11:01:30;;;;;;;10.43;8.57;;;17.10;99.90;;;;;;5036217;28;20219;-71
2022/10/18 11:04:02;;;;;;;9.23;7.35;;;17.10;99.90;;;;;;5017366;28;20253;-71
2022/10/18 11:06:38;;;;;;;9.15;7.55;;;17.00;99.90;;;;;;5027293;28;20319;-71
2022/10/18 11:09:13;;;;;;;10.52;7.38;;;17.00;99.90;;;;;;5031780;28;20290;-71
2022/10/18 11:11:55;;;;;;;10.00;7.70;;;17.00;99.90;;;;;;5035281;28;20168;-71
2022/10/18 11:14:28;;;;;;;9.60;6.85;;;17.00;99.90;;;;;;5031798;28;20196;-71
2022/10/18 11:17:00;;;;;;;10.98;6.90;;;16.90;99.90;;;;;;5027527;28;20226;-71
2022/10/18 11:19:42;;;;;;;8.35;6.28;;;16.90;99.90;;;;;;5033851;28;20213;-71
2022/10/18 11:22:15;;;;;;;7.60;6.57;;;16.90;99.90;;;;;;5033021;28;20212;-71
2022/10/18 11:24:40;;;;;;;9.98;6.95;;;16.90;99.90;;;;;;5013051;28;20215;-70
2022/10/18 11:27:18;;;;;;;9.45;6.63;;;16.90;99.90;;;;;;5038458;28;20184;-71
2022/10/18 11:30:02;;;;;;;8.20;6.97;;;17.00;99.90;;;;;;5028786;28;20219;-71
2022/10/18 11:32:54;;;;;;;12.70;6.78;;;17.00;99.90;;;;;;5023702;28;20279;-71
2022/10/18 11:35:41;;;;;;;9.43;7.10;;;17.10;99.90;;;;;;5018684;28;20662;-71
2022/10/18 11:38:20;;;;;;;10.20;7.97;;;17.00;99.90;;;;;;5035806;28;20686;-71
2022/10/18 11:41:04;;;;;;;7.97;7.00;;;17.10;99.90;;;;;;5031417;28;20243;-71
2022/10/18 11:43:50;;;;;;;11.10;6.88;;;17.00;99.90;;;;;;5034425;28;20731;-71
2022/10/18 11:46:27;;;;;;;9.43;7.20;;;17.00;99.90;;;;;;5036311;28;20206;-71
2022/10/18 11:49:10;;;;;;;8.68;7.50;;;17.00;99.90;;;;;;5031730;28;20767;-70
2022/10/18 11:52:01;;;;;;;6.65;6.00;;;17.10;99.90;;;;;;5028057;28;20254;-71
2022/10/18 11:55:01;;;;;;;7.43;6.65;;;17.10;99.90;;;;;;5031678;28;20429;-71
2022/10/18 11:57:29;;;;;;;8.68;6.35;;;17.00;99.90;;;;;;5024577;28;20204;-71
2022/10/18 12:00:03;;;;;;;8.38;6.10;;;17.20;99.90;;;;;;5029251;28;20245;-71
2022/10/18 12:02:51;;;;;;;7.50;5.97;;;17.30;99.90;;;;;;5035352;28;20309;-72
2022/10/18 12:05:17;;;;;;;7.78;5.65;;;17.30;99.90;;;;;;5034046;28;20278;-71
2022/10/18 12:07:59;;;;;;;6.32;5.20;;;17.30;99.90;;;;;;5030335;28;20763;-71
2022/10/18 12:10:27;;;;;;;7.15;5.25;;;17.40;99.90;;;;;;5036568;28;20211;-71
2022/10/18 12:13:01;;;;;;;10.30;6.07;;;17.30;99.90;;;;;;5019314;28;20258;-71
2022/10/18 12:15:30;;;;;;;6.75;5.72;;;17.30;99.90;;;;;;5030465;28;20565;-72
2022/10/18 12:18:02;;;;;;;7.72;6.38;;;17.30;99.90;;;;;;5034035;28;20184;-71
2022/10/18 12:20:33;;;;;;;6.60;5.95;;;17.40;99.90;;;;;;5039382;28;20557;-71
2022/10/18 12:23:15;;;;;;;7.32;6.18;;;17.30;99.90;;;;;;5036663;28;20585;-71
2022/10/18 12:25:45;;;;;;;9.20;6.82;;;17.30;99.90;;;;;;5033768;28;20235;-71
2022/10/18 12:28:32;;;;;;;7.28;6.25;;;17.30;99.90;;;;;;5041065;28;20679;-71
2022/10/18 12:31:20;;;;;;;6.85;5.93;;;17.30;99.90;;;;;;5036693;28;20219;-71
2022/10/18 12:33:54;;;;;;;12.32;7.35;;;17.30;99.90;;;;;;5061767;23;20700;-71
2022/10/18 12:36:19;;;;;;;7.45;6.40;;;17.40;99.90;;;;;;5073486;28;20217;-70
2022/10/18 12:38:58;;;;;;;7.93;7.13;;;17.30;99.90;;;;;;5070743;28;20254;-69
2022/10/18 12:41:32;;;;;;;8.52;7.35;;;17.40;99.90;;;;;;5067038;28;20219;-69
2022/10/18 12:44:00;;;;;;;8.35;7.38;;;17.40;99.90;;;;;;5072543;28;20207;-70
2022/10/18 12:46:45;;;;;;;8.13;7.05;;;17.50;99.90;;;;;;5070816;28;20203;-69
2022/10/18 12:49:12;;;;;;;9.00;7.43;;;17.40;99.90;;;;;;5048488;28;20776;-69
2022/10/18 12:51:51;;;;;;;8.40;7.53;;;17.40;99.90;;;;;;5051270;28;20215;-71
2022/10/18 12:54:20;;;;;;;8.45;7.30;;;17.50;99.90;;;;;;5058236;28;20223;-70
2022/10/18 12:56:46;;;;;;;8.38;7.57;;;17.50;99.90;;;;;;5069886;28;20175;-71
2022/10/18 12:59:15;;;;;;;10.10;8.50;;;17.50;99.90;;;;;;5064816;28;20211;-69
2022/10/18 13:01:49;;;;;;;9.18;7.85;;;17.60;99.90;;;;;;5072080;28;20293;-71
2022/10/18 13:04:26;;;;;;;10.38;7.75;;;17.60;99.90;;;;;;5068840;28;20687;-71
2022/10/18 13:06:58;;;;;;;9.50;7.80;;;17.70;99.90;;;;;;5048509;28;20198;-69
2022/10/18 13:09:30;;;;;;;8.43;7.32;;;17.60;99.90;;;;;;5065868;28;20231;-70
2022/10/18 13:12:25;;;;;;;10.38;7.18;;;17.60;99.90;;;;;;5068352;28;20530;-70
2022/10/18 13:15:25;;;;;;;13.60;8.40;;;17.70;99.90;;;;;;5042359;28;20548;-71
2022/10/18 13:17:59;;;;;;;9.70;7.93;;;17.70;99.90;;;;;;5061291;28;20672;-71
2022/10/18 13:20:46;;;;;;;9.50;8.25;;;17.70;99.90;;;;;;5067695;28;20221;-71
2022/10/18 13:23:54;;;;;;;9.80;7.72;;;17.60;99.90;;;;;;5064379;28;20206;-71
2022/10/18 13:26:25;;;;;;;10.35;8.00;;;17.60;99.90;;;;;;5047110;28;20557;-71
2022/10/18 13:29:08;;;;;;;10.15;8.15;;;17.50;99.90;;;;;;5067999;28;20233;-70
2022/10/18 13:31:40;;;;;;;8.55;7.38;;;17.50;99.90;;;;;;5061248;28;20206;-70
2022/10/18 13:34:23;;;;;;;9.20;8.23;;;17.50;99.90;;;;;;5045181;28;20223;-70